createdAt,value
2022-09-22T00:02:21.782Z,7.47
2022-09-22T00:05:29.132Z,7.22
2022-09-22T00:08:35.262Z,8.18
2022-09-22T00:11:50.932Z,8.43
2022-09-22T00:14:56.293Z,8.08
2022-09-22T00:18:02.931Z,8.48
2022-09-22T00:21:13.451Z,8.48
2022-09-22T00:24:20.268Z,7.70
2022-09-22T00:27:26.075Z,8.35
2022-09-22T00:30:33.082Z,7.87
2022-09-22T00:33:38.851Z,7.90
2022-09-22T00:36:44.030Z,11.05
2022-09-22T00:39:51.810Z,10.88
2022-09-22T00:42:58.927Z,11.88
2022-09-22T00:46:08.434Z,12.95
2022-09-22T00:49:18.635Z,19.75
2022-09-22T00:52:26.583Z,24.70
2022-09-22T00:56:01.285Z,21.35
2022-09-22T00:59:11.433Z,14.83
2022-09-22T01:02:17.753Z,9.88
2022-09-22T01:05:23.548Z,8.25
2022-09-22T01:08:31.616Z,7.15
2022-09-22T01:11:37.154Z,7.35
2022-09-22T01:14:58.378Z,6.97
2022-09-22T01:18:35.241Z,8.18
2022-09-22T01:22:07.337Z,6.47
2022-09-22T01:25:55.068Z,7.00
2022-09-22T01:29:42.826Z,6.45
2022-09-22T01:33:00.239Z,6.30
2022-09-22T01:36:18.337Z,6.50
2022-09-22T01:39:41.645Z,6.20
2022-09-22T01:43:12.160Z,6.37
2022-09-22T01:46:22.505Z,13.68
2022-09-22T01:49:29.259Z,6.00
2022-09-22T01:52:40.155Z,5.15
2022-09-22T01:55:54.487Z,4.67
2022-09-22T01:59:08.345Z,5.20
2022-09-22T02:02:20.107Z,4.97
2022-09-22T02:05:38.558Z,4.15
2022-09-22T02:09:01.132Z,4.67
2022-09-22T02:12:08.384Z,4.87
2022-09-22T02:15:15.824Z,4.50
2022-09-22T02:18:31.313Z,5.65
2022-09-22T02:21:36.575Z,5.25
2022-09-22T02:24:49.897Z,5.10
2022-09-22T02:27:55.427Z,4.12
2022-09-22T02:31:20.394Z,3.75
2022-09-22T02:34:09.476Z,3.83
2022-09-22T02:37:27.507Z,4.05
2022-09-22T02:40:59.801Z,4.00
2022-09-22T02:44:13.242Z,4.53
2022-09-22T02:47:36.399Z,4.00
2022-09-22T02:50:42.140Z,4.43
2022-09-22T02:53:49.500Z,15.53
2022-09-22T02:56:57.400Z,7.15
2022-09-22T03:00:03.146Z,6.10
2022-09-22T03:03:09.017Z,5.67
2022-09-22T03:06:15.322Z,5.17
2022-09-22T03:09:23.520Z,4.67
2022-09-22T03:12:28.953Z,4.87
2022-09-22T03:15:34.186Z,5.05
2022-09-22T03:18:40.582Z,5.05
2022-09-22T03:21:49.261Z,4.83
2022-09-22T03:24:55.533Z,5.53
2022-09-22T03:28:01.976Z,6.60
2022-09-22T03:31:07.300Z,5.47
2022-09-22T03:34:14.959Z,5.10
2022-09-22T03:37:19.935Z,5.90
2022-09-22T03:40:25.531Z,5.87
2022-09-22T03:43:31.513Z,13.48
2022-09-22T03:46:38.001Z,6.28
2022-09-22T03:49:43.562Z,10.18
2022-09-22T03:52:52.371Z,6.72
2022-09-22T03:55:57.702Z,6.75
2022-09-22T03:59:03.650Z,6.72
2022-09-22T04:02:11.239Z,6.78
2022-09-22T04:05:17.061Z,6.33
2022-09-22T04:08:23.171Z,11.70
2022-09-22T04:11:31.443Z,6.40
2022-09-22T04:14:37.248Z,6.30
2022-09-22T04:17:43.968Z,7.00
2022-09-22T04:20:52.486Z,7.00
2022-09-22T04:23:58.447Z,5.53
2022-09-22T04:27:21.259Z,5.95
2022-09-22T04:30:12.341Z,5.50
2022-09-22T04:33:18.444Z,5.45
2022-09-22T04:36:24.270Z,5.67
2022-09-22T04:39:29.721Z,20.17
2022-09-22T04:42:36.262Z,8.08
2022-09-22T04:45:42.588Z,6.30
2022-09-22T04:48:50.318Z,5.53
2022-09-22T04:51:57.674Z,16.02
2022-09-22T04:55:04.826Z,20.92
2022-09-22T04:58:16.134Z,8.05
2022-09-22T05:01:24.058Z,6.75
2022-09-22T05:04:31.135Z,7.00
2022-09-22T05:07:39.204Z,14.85
2022-09-22T05:10:46.119Z,10.43
2022-09-22T05:13:53.671Z,41.28
2022-09-22T05:17:02.310Z,8.90
2022-09-22T05:20:12.353Z,8.08
2022-09-22T05:23:17.986Z,6.50
2022-09-22T05:26:23.508Z,5.85
2022-09-22T05:29:29.788Z,5.53
2022-09-22T05:32:40.401Z,5.22
2022-09-22T05:35:45.124Z,4.85
2022-09-22T05:38:54.371Z,5.83
2022-09-22T05:42:02.359Z,7.12
2022-09-22T05:45:07.787Z,8.78
2022-09-22T05:48:14.361Z,6.97
2022-09-22T05:51:20.729Z,6.15
2022-09-22T05:54:27.650Z,5.87
2022-09-22T05:57:34.834Z,9.45
2022-09-22T06:00:40.382Z,5.72
2022-09-22T06:03:46.869Z,6.17
2022-09-22T06:06:52.809Z,7.80
2022-09-22T06:10:01.918Z,10.20
2022-09-22T06:13:16.994Z,8.25
2022-09-22T06:16:22.052Z,7.05
2022-09-22T06:19:28.209Z,9.00
2022-09-22T06:22:38.632Z,6.47
2022-09-22T06:25:45.271Z,5.78
2022-09-22T06:29:04.603Z,5.80
2022-09-22T06:32:11.072Z,5.30
2022-09-22T06:35:18.383Z,5.42
2022-09-22T06:38:24.807Z,5.75
2022-09-22T06:41:32.784Z,4.62
2022-09-22T06:44:39.646Z,4.70
2022-09-22T06:47:46.181Z,4.95
2022-09-22T06:50:53.805Z,4.12
2022-09-22T06:53:58.491Z,5.00
2022-09-22T06:57:07.250Z,5.97
2022-09-22T07:00:14.745Z,4.42
2022-09-22T07:03:36.132Z,7.22
2022-09-22T07:06:44.335Z,5.15
2022-09-22T07:09:49.494Z,5.15
2022-09-22T07:12:59.833Z,5.25
2022-09-22T07:16:31.623Z,5.35
2022-09-22T07:19:39.697Z,4.92
2022-09-22T07:22:50.436Z,5.35
2022-09-22T07:26:10.004Z,5.55
2022-09-22T07:29:22.759Z,4.67
2022-09-22T07:32:30.236Z,5.00
2022-09-22T07:35:51.850Z,4.75
2022-09-22T07:39:47.544Z,4.55
2022-09-22T07:43:05.054Z,4.95
2022-09-22T07:46:14.000Z,5.20
2022-09-22T07:49:26.272Z,4.95
2022-09-22T07:52:33.111Z,4.78
2022-09-22T07:55:45.851Z,4.45
2022-09-22T07:58:55.227Z,4.55
2022-09-22T08:02:02.601Z,3.72
2022-09-22T08:05:10.368Z,4.28
2022-09-22T08:08:15.984Z,3.95
2022-09-22T08:11:25.258Z,4.03
2022-09-22T08:14:32.276Z,25.95
2022-09-22T08:17:38.194Z,5.20
2022-09-22T08:20:44.995Z,2.98
2022-09-22T08:23:51.943Z,16.45
2022-09-22T08:27:03.266Z,4.10
2022-09-22T08:30:09.171Z,3.17
2022-09-22T08:33:14.779Z,4.58
2022-09-22T08:36:20.563Z,3.52
2022-09-22T08:39:27.836Z,4.65
2022-09-22T08:42:35.291Z,2.70
2022-09-22T08:45:53.269Z,2.42
2022-09-22T08:49:19.203Z,2.20
2022-09-22T08:52:56.061Z,9.68
2022-09-22T08:56:17.856Z,3.10
2022-09-22T08:59:41.859Z,2.90
2022-09-22T09:03:14.289Z,3.20
2022-09-22T09:06:24.807Z,2.42
2022-09-22T09:09:57.057Z,2.30
2022-09-22T09:13:29.540Z,2.35
2022-09-22T09:17:08.482Z,2.05
2022-09-22T09:20:24.981Z,2.65
2022-09-22T09:26:48.922Z,2.02
2022-09-22T09:30:03.958Z,1.87
2022-09-22T09:33:15.366Z,1.82
2022-09-22T09:36:29.414Z,2.00
2022-09-22T09:39:49.525Z,1.60
2022-09-22T09:42:56.535Z,1.40
2022-09-22T09:46:15.645Z,1.62
2022-09-22T09:49:31.083Z,1.40
2022-09-22T09:52:36.593Z,1.85
2022-09-22T09:55:45.846Z,1.70
2022-09-22T09:59:24.895Z,1.52
2022-09-22T10:02:35.104Z,1.70
2022-09-22T10:05:39.662Z,1.57
2022-09-22T10:08:59.915Z,1.32
2022-09-22T10:12:18.290Z,1.67
2022-09-22T10:15:35.156Z,13.05
2022-09-22T10:18:47.077Z,2.62
2022-09-22T10:21:53.212Z,1.35
2022-09-22T10:25:09.451Z,5.08
2022-09-22T10:28:33.294Z,2.02
2022-09-22T10:31:44.694Z,1.95
2022-09-22T10:34:59.061Z,1.62
2022-09-22T10:38:13.627Z,1.50
2022-09-22T10:41:26.196Z,1.50
2022-09-22T10:44:39.412Z,1.40
2022-09-22T10:48:12.434Z,1.52
2022-09-22T10:51:49.818Z,1.20
2022-09-22T10:55:09.981Z,1.37
2022-09-22T10:58:26.548Z,1.52
2022-09-22T11:02:33.259Z,1.62
2022-09-22T11:10:31.020Z,1.87
2022-09-22T11:18:39.701Z,1.20
2022-09-22T11:22:01.704Z,1.47
2022-09-22T11:25:18.101Z,1.30
2022-09-22T11:29:02.077Z,1.47
2022-09-22T11:32:25.901Z,1.30
2022-09-22T11:35:48.210Z,1.40
2022-09-22T11:39:32.148Z,2.00
2022-09-22T11:46:33.424Z,1.20
2022-09-22T11:50:12.205Z,1.30
2022-09-22T11:53:49.704Z,1.32
2022-09-22T11:57:10.507Z,1.80
2022-09-22T12:00:36.189Z,1.87
2022-09-22T12:03:57.756Z,3.35
2022-09-22T12:07:04.964Z,2.55
2022-09-22T12:10:17.502Z,2.00
2022-09-22T12:13:43.037Z,1.77
2022-09-22T12:17:21.442Z,2.10
2022-09-22T12:21:04.096Z,1.75
2022-09-22T12:24:10.123Z,2.33
2022-09-22T12:27:36.972Z,1.60
2022-09-22T12:30:44.926Z,1.85
2022-09-22T12:33:51.992Z,1.80
2022-09-22T12:36:59.694Z,1.30
2022-09-22T12:40:05.398Z,1.20
2022-09-22T12:43:10.880Z,1.70
2022-09-22T12:46:22.252Z,1.35
2022-09-22T12:49:35.638Z,1.70
2022-09-22T12:53:02.886Z,1.70
2022-09-22T12:56:17.750Z,1.80
2022-09-22T13:00:04.377Z,1.30
2022-09-22T13:05:46.547Z,1.60
2022-09-22T13:08:53.325Z,1.80
2022-09-22T13:12:28.483Z,1.45
2022-09-22T13:18:05.534Z,1.60
2022-09-22T13:23:41.896Z,1.02
2022-09-22T13:26:53.693Z,1.27
2022-09-22T13:30:14.447Z,1.30
2022-09-22T13:33:37.932Z,1.00
2022-09-22T13:36:43.189Z,1.25
2022-09-22T13:39:56.000Z,1.40
2022-09-22T13:43:01.302Z,1.90
2022-09-22T13:46:10.159Z,1.62
2022-09-22T13:51:47.786Z,1.45
2022-09-22T13:54:52.995Z,1.55
2022-09-22T14:01:01.449Z,1.42
2022-09-22T14:03:33.806Z,1.30
2022-09-22T14:09:09.005Z,1.52
2022-09-22T14:14:46.331Z,1.90
2022-09-22T14:20:23.767Z,1.60
2022-09-22T14:23:42.621Z,1.80
2022-09-22T14:26:41.280Z,2.50
2022-09-22T14:29:53.205Z,2.90
2022-09-22T14:35:50.678Z,1.20
2022-09-22T14:41:38.112Z,2.77
2022-09-22T14:45:05.090Z,2.20
2022-09-22T14:48:31.950Z,2.08
2022-09-22T14:54:15.533Z,1.72
2022-09-22T15:00:10.058Z,2.17
2022-09-22T15:03:15.807Z,1.87
2022-09-22T15:06:25.354Z,2.47
2022-09-22T15:12:04.239Z,2.70
2022-09-22T15:18:16.310Z,3.08
2022-09-22T15:21:29.384Z,2.67
2022-09-22T15:24:36.960Z,2.83
2022-09-22T15:27:45.262Z,2.80
2022-09-22T15:30:51.756Z,3.67
2022-09-22T15:36:28.559Z,7.67
2022-09-22T15:42:08.398Z,5.97
2022-09-22T15:47:41.662Z,5.78
2022-09-22T15:50:47.444Z,5.72
2022-09-22T15:56:35.811Z,5.08
2022-09-22T15:59:54.546Z,5.60
2022-09-22T16:02:59.531Z,10.18
2022-09-22T16:06:09.176Z,7.78
2022-09-22T16:11:43.259Z,12.45
2022-09-22T16:17:20.943Z,11.43
2022-09-22T16:22:58.445Z,18.40
2022-09-22T16:28:35.514Z,10.13
2022-09-22T16:34:13.468Z,6.55
2022-09-22T16:39:48.022Z,7.28
2022-09-22T16:42:48.099Z,5.67
2022-09-22T16:48:26.695Z,4.20
2022-09-22T16:54:03.436Z,4.17
2022-09-22T16:57:09.594Z,4.40
2022-09-22T17:02:48.693Z,4.28
2022-09-22T17:08:27.774Z,4.87
2022-09-22T17:14:03.541Z,7.33
2022-09-22T17:17:11.913Z,5.53
2022-09-22T17:22:47.083Z,4.80
2022-09-22T17:28:28.243Z,5.53
2022-09-22T17:34:03.577Z,8.25
2022-09-22T17:39:42.990Z,9.13
2022-09-22T17:42:48.378Z,12.00
2022-09-22T17:51:08.609Z,15.35
2022-09-22T17:54:30.998Z,12.45
2022-09-22T17:57:45.468Z,9.20
2022-09-22T18:00:51.886Z,9.20
2022-09-22T18:03:37.562Z,10.80
2022-09-22T18:06:43.835Z,8.63
2022-09-22T18:09:50.606Z,6.35
2022-09-22T18:18:01.237Z,7.58
2022-09-22T18:23:38.226Z,7.70
2022-09-22T18:26:45.949Z,8.05
2022-09-22T18:32:21.168Z,8.80
2022-09-22T18:37:57.976Z,9.58
2022-09-22T18:41:04.648Z,10.63
2022-09-22T18:46:40.866Z,5.75
2022-09-22T18:49:47.499Z,8.05
2022-09-22T18:55:26.297Z,7.35
2022-09-22T19:01:07.422Z,8.98
2022-09-22T19:12:00.291Z,11.00
2022-09-22T19:17:36.770Z,11.00
2022-09-22T19:20:44.284Z,11.00
2022-09-22T19:23:50.978Z,10.80
2022-09-22T19:29:28.854Z,14.25
2022-09-22T19:32:34.556Z,53.95
2022-09-22T19:35:40.963Z,20.97
2022-09-22T19:38:46.892Z,10.75
2022-09-22T19:44:24.794Z,9.48
2022-09-22T19:50:02.041Z,5.67
2022-09-22T19:53:08.348Z,4.72
2022-09-22T19:58:43.318Z,5.08
2022-09-22T20:04:18.797Z,4.58
2022-09-22T20:07:24.890Z,3.90
2022-09-22T20:12:59.901Z,4.33
2022-09-22T20:18:41.248Z,4.20
2022-09-22T20:24:14.691Z,3.42
2022-09-22T20:27:22.489Z,3.60
2022-09-22T20:32:59.193Z,4.78
2022-09-22T20:38:35.395Z,3.75
2022-09-22T20:41:41.439Z,31.77
2022-09-22T20:44:50.484Z,28.62
2022-09-22T20:52:57.538Z,29.70
2022-09-22T20:56:18.920Z,9.45
2022-09-22T20:59:24.970Z,11.95
2022-09-22T21:02:34.206Z,6.08
2022-09-22T21:05:43.339Z,6.10
2022-09-22T21:11:27.316Z,9.50
2022-09-22T21:14:18.296Z,6.17
2022-09-22T21:17:06.662Z,5.20
2022-09-22T21:20:13.923Z,4.60
2022-09-22T21:23:19.614Z,3.77
2022-09-22T21:29:00.662Z,4.70
2022-09-22T21:34:39.334Z,3.70
2022-09-22T21:37:44.715Z,3.70
2022-09-22T21:40:51.249Z,3.65
2022-09-22T21:43:58.122Z,4.30
2022-09-22T21:47:05.452Z,6.30
2022-09-22T21:50:11.960Z,12.13
2022-09-22T21:55:48.177Z,6.25
2022-09-22T22:01:26.723Z,5.12
2022-09-22T22:07:02.261Z,4.78
2022-09-22T22:10:09.935Z,4.40
2022-09-22T22:15:48.229Z,4.65
2022-09-22T22:24:00.417Z,4.65
2022-09-22T22:29:39.995Z,4.85
2022-09-22T22:32:47.306Z,4.45
2022-09-22T22:35:23.358Z,4.40
2022-09-22T22:38:06.685Z,4.72
2022-09-22T22:41:20.634Z,60.03
2022-09-22T22:46:55.628Z,48.42
2022-09-22T22:52:34.889Z,40.98
2022-09-22T22:58:10.380Z,28.80
2022-09-22T23:01:25.081Z,29.30
2022-09-22T23:04:16.692Z,14.38
2022-09-22T23:09:54.986Z,7.83
2022-09-22T23:15:31.036Z,6.95
2022-09-22T23:18:37.579Z,5.85
2022-09-22T23:24:13.792Z,6.20
2022-09-22T23:27:19.606Z,7.45
2022-09-22T23:30:18.873Z,6.28
2022-09-22T23:33:26.690Z,5.67
2022-09-22T23:39:02.114Z,7.53
2022-09-22T23:44:37.322Z,5.08
2022-09-22T23:47:42.823Z,5.33
2022-09-22T23:53:17.930Z,6.58
2022-09-22T23:56:25.066Z,7.53
